Portada
METAR-TAF:

METAR-TAF

Aeroports :

Whiting_Field_Naval_Air_Station_South_Airport

Milton, Florida, Estats Units d'Amèrica

latitud: 30-41-50N, longitud: 087-01-12W, altitud: 54 m

Observació

L'informe es va fer fa 1 hora i 45 minuts, a les 19:56 UTC
Vent 6 kt amb direcció variable
Temperatura 17°C
Humitat 23%
Pressió 1023 hPa
Visibilitat: 16.1 km
Escasses núvols a una alçada de 1000 ft

METAR: KNDZ 281956Z VRB06KT 10SM FEW010 17/M04 A3020 RMK AO2 SLP214 FU FEW010 T01721039 $

Hora: 15:41 (21:41 UTC)


TAF: manca

Observacions i pronòstics meteorològics de més de 4000 aeroports (METAR i TAF).

Les estacions disponibles són els punts grocs i vermells al mapa.

Posi el ratolí al punt desitjat per veure el nom de l'estació.

Feu clic per veure les observacions i els pronòstics meteorològics.

Per canviar el mapa: feu clic els botons verds amb una creu de color negre per apropar; al botó verd amb un guió per allunyar la imatge; o en les fletxes verdes per a mapes adjacents.


METAR-TAF: